Time;durP1;ratioP1;P1;durP2;ratioP2;P2;SDS_P1;SDS_P2;PMS_P1;PMS_P2;Temp;Humidity;BMP_temperature;BMP_pressure;BME280_temperature;BME280_humidity;BME280_pressure;Samples;Min_cycle;Max_cycle;Signal;HPM_P1;HPM_P2
2021/08/02 00:01:04;;;;;;;3.70;2.70;;;;;;;;;;5014584;28;20412;-83
2021/08/02 00:03:30;;;;;;;2.97;2.23;;;;;;;;;;5014594;28;20505;-82
2021/08/02 00:06:01;;;;;;;2.57;2.00;;;;;;;;;;5015845;28;20437;-83
2021/08/02 00:08:30;;;;;;;2.73;2.30;;;;;;;;;;5017290;28;20478;-84
2021/08/02 00:10:59;;;;;;;4.33;2.23;;;;;;;;;;5019378;28;20407;-82
2021/08/02 00:13:28;;;;;;;4.00;2.00;;;;;;;;;;5017592;28;20447;-81
2021/08/02 00:16:04;;;;;;;3.50;2.40;;;;;;;;;;5018986;28;20420;-84
2021/08/02 00:18:31;;;;;;;4.43;2.50;;;;;;;;;;5017631;28;20435;-83
2021/08/02 00:21:01;;;;;;;4.00;2.13;;;;;;;;;;5018919;28;20458;-83
2021/08/02 00:23:27;;;;;;;3.00;2.20;;;;;;;;;;5017275;28;20487;-83
2021/08/02 00:25:55;;;;;;;4.07;3.43;;;;;;;;;;5018846;28;20483;-82
2021/08/02 00:28:21;;;;;;;2.53;2.10;;;;;;;;;;5017209;28;20427;-85
2021/08/02 00:30:48;;;;;;;3.63;1.90;;;;;;;;;;5018452;28;20403;-85
2021/08/02 00:33:14;;;;;;;4.30;2.20;;;;;;;;;;5018111;28;20447;-84
2021/08/02 00:35:44;;;;;;;2.90;2.10;;;;;;;;;;5019055;28;20427;-84
2021/08/02 00:38:15;;;;;;;5.73;2.37;;;;;;;;;;5014984;28;20439;-84
2021/08/02 00:40:44;;;;;;;3.07;2.20;;;;;;;;;;5019154;28;20393;-84
2021/08/02 00:43:37;;;;;;;2.50;1.80;;;;;;;;;;5017775;28;20455;-84
2021/08/02 00:46:03;;;;;;;4.67;2.27;;;;;;;;;;5011275;28;20448;-84
2021/08/02 00:48:32;;;;;;;3.30;2.23;;;;;;;;;;5018399;28;20431;-82
2021/08/02 00:51:03;;;;;;;3.70;2.13;;;;;;;;;;5017793;28;20408;-85
2021/08/02 00:53:29;;;;;;;3.20;2.30;;;;;;;;;;5017534;28;20424;-85
2021/08/02 00:55:56;;;;;;;2.50;2.00;;;;;;;;;;5019396;28;20408;-85
2021/08/02 00:58:23;;;;;;;4.83;2.17;;;;;;;;;;5018019;28;20421;-84
2021/08/02 01:00:51;;;;;;;3.53;2.40;;;;;;;;;;5025672;28;20411;-81
2021/08/02 01:03:17;;;;;;;4.00;2.80;;;;;;;;;;5012278;28;20456;-85
2021/08/02 01:05:44;;;;;;;4.17;2.70;;;;;;;;;;5005026;28;20429;-84
2021/08/02 01:08:14;;;;;;;3.00;2.40;;;;;;;;;;5001523;28;20431;-84
2021/08/02 01:10:47;;;;;;;3.87;2.63;;;;;;;;;;5000692;28;20479;-84
2021/08/02 01:13:16;;;;;;;6.47;2.47;;;;;;;;;;5014378;28;20441;-84
2021/08/02 01:15:45;;;;;;;3.13;2.63;;;;;;;;;;5000947;28;20917;-84
2021/08/02 01:18:12;;;;;;;4.27;2.60;;;;;;;;;;5005280;28;20897;-80
2021/08/02 01:20:41;;;;;;;2.90;2.40;;;;;;;;;;5018909;28;20438;-84
2021/08/02 01:23:08;;;;;;;3.47;2.60;;;;;;;;;;5028030;28;20430;-84
2021/08/02 01:25:34;;;;;;;5.53;3.20;;;;;;;;;;5037658;28;20450;-84
2021/08/02 01:28:16;;;;;;;2.73;2.43;;;;;;;;;;5038970;28;20415;-84
2021/08/02 01:30:46;;;;;;;3.23;2.47;;;;;;;;;;5019559;28;20417;-85
2021/08/02 01:33:12;;;;;;;3.47;2.63;;;;;;;;;;5003132;28;20933;-84
2021/08/02 01:35:39;;;;;;;4.73;2.93;;;;;;;;;;5015484;28;20424;-84
2021/08/02 01:38:06;;;;;;;3.90;2.67;;;;;;;;;;5022394;28;20414;-84
2021/08/02 01:40:32;;;;;;;3.93;3.10;;;;;;;;;;5010153;28;20507;-84
2021/08/02 01:43:01;;;;;;;4.93;2.83;;;;;;;;;;5002301;28;20428;-84
2021/08/02 01:45:27;;;;;;;6.70;3.03;;;;;;;;;;5002199;28;20956;-84
2021/08/02 01:47:56;;;;;;;3.97;2.73;;;;;;;;;;5003018;28;20456;-84
2021/08/02 01:50:46;;;;;;;4.90;3.37;;;;;;;;;;5011991;28;20438;-84
2021/08/02 01:53:30;;;;;;;3.80;3.27;;;;;;;;;;5021647;28;20431;-84
2021/08/02 01:56:01;;;;;;;7.90;3.23;;;;;;;;;;5007076;28;20429;-84
2021/08/02 01:58:30;;;;;;;4.03;2.90;;;;;;;;;;5002667;28;20400;-84
2021/08/02 02:00:57;;;;;;;3.93;3.07;;;;;;;;;;5016387;28;20454;-84
2021/08/02 02:03:25;;;;;;;5.13;3.20;;;;;;;;;;5021445;28;20527;-83
2021/08/02 02:06:02;;;;;;;5.83;3.03;;;;;;;;;;5021006;28;20477;-84
2021/08/02 02:08:39;;;;;;;4.53;3.13;;;;;;;;;;5021647;28;20407;-84
2021/08/02 02:11:05;;;;;;;4.30;3.00;;;;;;;;;;5019997;28;20445;-84
2021/08/02 02:13:36;;;;;;;3.33;2.50;;;;;;;;;;5021450;28;20463;-84
2021/08/02 02:16:03;;;;;;;6.27;3.60;;;;;;;;;;5016068;28;20964;-84
2021/08/02 02:18:30;;;;;;;3.80;3.33;;;;;;;;;;5001541;28;20567;-84
2021/08/02 02:20:59;;;;;;;5.87;3.07;;;;;;;;;;5009746;28;20943;-84
2021/08/02 02:23:25;;;;;;;3.30;2.70;;;;;;;;;;5017784;28;21008;-83
2021/08/02 02:25:52;;;;;;;3.77;2.80;;;;;;;;;;5007271;28;20959;-82
2021/08/02 02:28:18;;;;;;;4.03;2.83;;;;;;;;;;4997578;28;20405;-81
2021/08/02 02:30:45;;;;;;;4.67;2.83;;;;;;;;;;4997938;28;20435;-84
2021/08/02 02:33:14;;;;;;;4.60;3.53;;;;;;;;;;4999732;28;20815;-84
2021/08/02 02:35:42;;;;;;;3.77;3.07;;;;;;;;;;5010501;28;20455;-84
2021/08/02 02:38:11;;;;;;;2.93;2.63;;;;;;;;;;5000027;28;20487;-82
2021/08/02 02:40:38;;;;;;;4.60;2.93;;;;;;;;;;5004411;28;20427;-83
2021/08/02 02:43:05;;;;;;;3.23;2.73;;;;;;;;;;5018038;28;20495;-83
2021/08/02 02:45:32;;;;;;;4.97;2.80;;;;;;;;;;5016040;28;20437;-84
2021/08/02 02:47:59;;;;;;;6.00;3.23;;;;;;;;;;5017252;28;20842;-82
2021/08/02 02:50:25;;;;;;;4.10;3.07;;;;;;;;;;5016842;28;20420;-84
2021/08/02 02:52:52;;;;;;;4.27;3.13;;;;;;;;;;5022183;28;20427;-84
2021/08/02 02:55:18;;;;;;;3.70;2.70;;;;;;;;;;5030372;28;20466;-82
2021/08/02 02:57:44;;;;;;;3.83;3.03;;;;;;;;;;5034559;28;20436;-81
2021/08/02 03:00:10;;;;;;;5.10;3.40;;;;;;;;;;5037702;28;20424;-81
2021/08/02 03:02:37;;;;;;;6.73;4.20;;;;;;;;;;5039001;28;20438;-83
2021/08/02 03:05:04;;;;;;;6.10;3.80;;;;;;;;;;5039369;28;20460;-83
2021/08/02 03:07:31;;;;;;;4.30;3.10;;;;;;;;;;5021586;28;20412;-83
2021/08/02 03:09:58;;;;;;;8.30;3.63;;;;;;;;;;5020849;28;20817;-83
2021/08/02 03:12:24;;;;;;;6.50;3.70;;;;;;;;;;5019103;28;20505;-83
2021/08/02 03:14:50;;;;;;;6.40;3.63;;;;;;;;;;5020176;28;20463;-83
2021/08/02 03:17:16;;;;;;;4.10;3.07;;;;;;;;;;5018712;28;20432;-83
2021/08/02 03:19:42;;;;;;;4.10;3.20;;;;;;;;;;5020378;28;20745;-83
2021/08/02 03:22:13;;;;;;;3.97;2.77;;;;;;;;;;5018268;28;20463;-83
2021/08/02 03:24:44;;;;;;;4.50;3.10;;;;;;;;;;5020856;28;20865;-83
2021/08/02 03:27:23;;;;;;;5.43;3.87;;;;;;;;;;5003529;28;20444;-83
2021/08/02 03:29:50;;;;;;;4.17;2.93;;;;;;;;;;5000699;28;20405;-83
2021/08/02 03:32:17;;;;;;;5.77;3.20;;;;;;;;;;5002488;28;20453;-83
2021/08/02 03:34:46;;;;;;;5.47;3.57;;;;;;;;;;5008826;28;20464;-83
2021/08/02 03:37:13;;;;;;;5.80;3.47;;;;;;;;;;5000015;28;20441;-83
2021/08/02 03:39:41;;;;;;;4.90;3.73;;;;;;;;;;4999857;28;20413;-83
2021/08/02 03:42:08;;;;;;;4.70;3.63;;;;;;;;;;5014585;28;20427;-83
2021/08/02 03:44:34;;;;;;;8.53;3.43;;;;;;;;;;5019276;28;20419;-84
2021/08/02 03:47:00;;;;;;;5.10;3.20;;;;;;;;;;5018061;28;20427;-82
2021/08/02 03:49:27;;;;;;;4.87;3.63;;;;;;;;;;5020108;28;20439;-83
2021/08/02 03:52:00;;;;;;;6.20;3.57;;;;;;;;;;5018917;28;20435;-82
2021/08/02 03:54:30;;;;;;;5.60;3.57;;;;;;;;;;5020880;28;20470;-83
2021/08/02 03:56:57;;;;;;;4.23;3.47;;;;;;;;;;5032730;28;20459;-84
2021/08/02 03:59:24;;;;;;;6.30;5.03;;;;;;;;;;5017523;28;20428;-85
2021/08/02 04:01:50;;;;;;;4.43;3.40;;;;;;;;;;5027698;28;20452;-84
2021/08/02 04:04:16;;;;;;;4.87;3.57;;;;;;;;;;5002214;28;20758;-84
2021/08/02 04:06:42;;;;;;;4.07;3.00;;;;;;;;;;5010531;28;20467;-84
2021/08/02 04:09:10;;;;;;;5.23;3.60;;;;;;;;;;5020318;28;20490;-84
2021/08/02 04:11:36;;;;;;;7.17;4.00;;;;;;;;;;5008241;28;20479;-84
2021/08/02 04:14:02;;;;;;;6.13;3.87;;;;;;;;;;4999765;28;20471;-84
2021/08/02 04:16:28;;;;;;;9.13;5.10;;;;;;;;;;5007106;28;20518;-84
2021/08/02 04:18:54;;;;;;;6.33;4.13;;;;;;;;;;5008939;28;20521;-82
2021/08/02 04:21:20;;;;;;;9.40;3.90;;;;;;;;;;5015650;28;20442;-82
2021/08/02 04:23:46;;;;;;;6.23;4.00;;;;;;;;;;5016810;28;20434;-82
2021/08/02 04:26:13;;;;;;;7.23;3.90;;;;;;;;;;5011095;28;20524;-82
2021/08/02 04:28:42;;;;;;;4.63;3.70;;;;;;;;;;4997630;28;20494;-84
2021/08/02 04:31:08;;;;;;;6.17;3.50;;;;;;;;;;5002547;28;20431;-84
2021/08/02 04:33:35;;;;;;;4.90;3.77;;;;;;;;;;5018862;28;20535;-82
2021/08/02 04:36:01;;;;;;;5.77;3.60;;;;;;;;;;5025448;28;20437;-83
2021/08/02 04:38:27;;;;;;;4.73;3.73;;;;;;;;;;5009108;28;20397;-84
2021/08/02 04:40:53;;;;;;;5.80;3.77;;;;;;;;;;5015689;28;20464;-84
2021/08/02 04:43:19;;;;;;;4.97;3.60;;;;;;;;;;5019221;28;20765;-84
2021/08/02 04:45:45;;;;;;;5.10;3.97;;;;;;;;;;5017638;28;20403;-84
2021/08/02 04:48:11;;;;;;;5.87;3.70;;;;;;;;;;4999600;28;20404;-84
2021/08/02 04:50:38;;;;;;;5.97;3.67;;;;;;;;;;4999755;28;20400;-83
2021/08/02 04:53:04;;;;;;;6.17;4.13;;;;;;;;;;5003563;28;20499;-84
2021/08/02 04:55:30;;;;;;;7.23;3.97;;;;;;;;;;5003783;28;20463;-84
2021/08/02 04:57:56;;;;;;;9.23;3.77;;;;;;;;;;5021459;28;20510;-84
2021/08/02 05:00:22;;;;;;;7.23;4.50;;;;;;;;;;5023266;28;20408;-84
2021/08/02 05:02:48;;;;;;;4.03;3.20;;;;;;;;;;5021735;28;20454;-84
2021/08/02 05:05:14;;;;;;;5.43;4.00;;;;;;;;;;5023380;28;20403;-84
2021/08/02 05:07:40;;;;;;;4.87;3.83;;;;;;;;;;5021733;28;20435;-84
2021/08/02 05:10:07;;;;;;;5.47;4.00;;;;;;;;;;5022771;28;20408;-84
2021/08/02 05:12:33;;;;;;;5.40;4.67;;;;;;;;;;5044611;23;20412;-69
2021/08/02 05:15:03;;;;;;;5.87;4.53;;;;;;;;;;5050311;28;20465;-68
2021/08/02 05:17:29;;;;;;;6.37;3.93;;;;;;;;;;5029058;28;21035;-69
2021/08/02 05:19:55;;;;;;;6.30;4.03;;;;;;;;;;5037017;28;20758;-69
2021/08/02 05:22:21;;;;;;;5.00;3.47;;;;;;;;;;5035784;28;20450;-69
2021/08/02 05:24:47;;;;;;;5.83;3.83;;;;;;;;;;5037242;28;20809;-69
2021/08/02 05:27:13;;;;;;;5.10;4.00;;;;;;;;;;5034989;28;20446;-69
2021/08/02 05:29:39;;;;;;;4.87;3.83;;;;;;;;;;5036020;28;20399;-69
2021/08/02 05:32:05;;;;;;;5.30;3.70;;;;;;;;;;5034086;28;20430;-69
2021/08/02 05:34:31;;;;;;;5.13;3.90;;;;;;;;;;5035874;28;20469;-69
2021/08/02 05:36:57;;;;;;;8.30;3.40;;;;;;;;;;5026969;28;20439;-69
2021/08/02 05:39:24;;;;;;;4.23;3.60;;;;;;;;;;5016157;28;20400;-69
2021/08/02 05:41:50;;;;;;;6.27;4.07;;;;;;;;;;5037880;28;20909;-69
2021/08/02 05:44:16;;;;;;;5.60;3.83;;;;;;;;;;5034473;28;20427;-69
2021/08/02 05:46:43;;;;;;;4.43;3.70;;;;;;;;;;5034948;28;20450;-69
2021/08/02 05:49:09;;;;;;;5.87;3.67;;;;;;;;;;5035585;28;20434;-69
2021/08/02 05:51:35;;;;;;;5.63;4.07;;;;;;;;;;5029897;28;20439;-69
2021/08/02 05:54:02;;;;;;;7.00;3.50;;;;;;;;;;5015882;28;20504;-69
2021/08/02 05:56:28;;;;;;;7.40;4.73;;;;;;;;;;5019252;28;20482;-69
2021/08/02 05:58:54;;;;;;;5.00;4.20;;;;;;;;;;5035478;28;20486;-69
2021/08/02 06:01:20;;;;;;;6.20;4.40;;;;;;;;;;5034242;28;20563;-70
2021/08/02 06:03:46;;;;;;;5.03;3.80;;;;;;;;;;5034845;28;20426;-70
2021/08/02 06:06:12;;;;;;;11.70;4.70;;;;;;;;;;5034840;28;20954;-71
2021/08/02 06:08:39;;;;;;;5.50;3.60;;;;;;;;;;5034862;28;20781;-70
2021/08/02 06:11:06;;;;;;;4.10;3.33;;;;;;;;;;5035385;28;20805;-71
2021/08/02 06:13:32;;;;;;;8.07;3.70;;;;;;;;;;5016233;28;20481;-70
2021/08/02 06:15:58;;;;;;;6.57;4.07;;;;;;;;;;5016357;28;20470;-70
2021/08/02 06:18:24;;;;;;;4.83;3.63;;;;;;;;;;5017873;28;20427;-70
2021/08/02 06:20:50;;;;;;;5.20;3.63;;;;;;;;;;5035550;28;20395;-69
2021/08/02 06:23:16;;;;;;;5.50;3.90;;;;;;;;;;5034570;28;20514;-69
2021/08/02 06:25:42;;;;;;;6.47;3.90;;;;;;;;;;5035374;28;20402;-70
2021/08/02 06:28:08;;;;;;;9.93;4.67;;;;;;;;;;5034511;28;20447;-70
2021/08/02 06:30:34;;;;;;;10.43;4.10;;;;;;;;;;5035476;28;20402;-70
2021/08/02 06:33:00;;;;;;;5.90;4.10;;;;;;;;;;5034022;28;20435;-70
2021/08/02 06:35:26;;;;;;;8.90;3.40;;;;;;;;;;5035290;28;20457;-70
2021/08/02 06:37:52;;;;;;;5.20;3.20;;;;;;;;;;5032951;28;20459;-71
2021/08/02 06:40:19;;;;;;;5.60;4.00;;;;;;;;;;5034461;28;20422;-70
2021/08/02 06:42:45;;;;;;;4.80;3.03;;;;;;;;;;5029300;28;20473;-71
2021/08/02 06:45:11;;;;;;;4.20;3.33;;;;;;;;;;5035125;28;20462;-70
2021/08/02 06:47:38;;;;;;;5.87;3.47;;;;;;;;;;5033640;28;20450;-70
2021/08/02 06:50:04;;;;;;;6.40;3.40;;;;;;;;;;5032654;28;20457;-70
2021/08/02 06:52:30;;;;;;;4.87;3.13;;;;;;;;;;5023327;28;20787;-71
2021/08/02 06:54:56;;;;;;;5.87;4.13;;;;;;;;;;5029635;28;20446;-76
2021/08/02 06:57:23;;;;;;;3.77;2.90;;;;;;;;;;5029449;28;20477;-70
2021/08/02 06:59:49;;;;;;;6.87;3.50;;;;;;;;;;5031301;28;20438;-70
2021/08/02 07:02:15;;;;;;;6.60;3.33;;;;;;;;;;5025355;28;20426;-70
2021/08/02 07:04:41;;;;;;;4.40;3.30;;;;;;;;;;5030537;28;20496;-70
2021/08/02 07:07:07;;;;;;;7.37;3.27;;;;;;;;;;5032144;28;20479;-71
2021/08/02 07:09:33;;;;;;;5.50;3.53;;;;;;;;;;5029288;28;20431;-70
2021/08/02 07:11:59;;;;;;;3.40;2.70;;;;;;;;;;5019755;28;20430;-70
2021/08/02 07:14:25;;;;;;;4.40;2.53;;;;;;;;;;5028625;28;21824;-71
2021/08/02 07:16:51;;;;;;;4.80;2.13;;;;;;;;;;5015904;28;20480;-71
2021/08/02 07:19:17;;;;;;;4.40;2.80;;;;;;;;;;5020926;28;20526;-72
2021/08/02 07:21:43;;;;;;;5.70;3.50;;;;;;;;;;5023777;28;20434;-75
2021/08/02 07:24:09;;;;;;;3.43;2.47;;;;;;;;;;5030808;28;20419;-71
2021/08/02 07:26:35;;;;;;;4.33;2.60;;;;;;;;;;5022606;28;20453;-71
2021/08/02 07:29:02;;;;;;;4.78;3.05;;;;;;;;;;5023029;28;20459;-73
2021/08/02 07:31:29;;;;;;;5.20;2.70;;;;;;;;;;5025757;28;20172;-69
2021/08/02 07:33:55;;;;;;;3.33;2.47;;;;;;;;;;5026679;28;20458;-69
2021/08/02 07:36:21;;;;;;;3.67;2.37;;;;;;;;;;5024437;28;20446;-69
2021/08/02 07:38:48;;;;;;;4.50;2.10;;;;;;;;;;5030701;28;20826;-68
2021/08/02 07:41:14;;;;;;;4.00;2.60;;;;;;;;;;5028285;28;20458;-70
2021/08/02 07:43:40;;;;;;;3.57;2.60;;;;;;;;;;5030106;28;20434;-70
2021/08/02 07:46:06;;;;;;;3.97;3.07;;;;;;;;;;5027530;28;20425;-70
2021/08/02 07:48:32;;;;;;;11.20;3.33;;;;;;;;;;5029019;28;20798;-70
2021/08/02 07:50:58;;;;;;;3.07;2.40;;;;;;;;;;5028759;28;20429;-70
2021/08/02 07:53:25;;;;;;;5.23;2.60;;;;;;;;;;5030974;28;20525;-71
2021/08/02 07:55:51;;;;;;;3.93;2.73;;;;;;;;;;5030736;28;20506;-74
2021/08/02 07:58:17;;;;;;;2.90;2.03;;;;;;;;;;5029405;28;20427;-75
2021/08/02 08:00:43;;;;;;;3.73;2.77;;;;;;;;;;5027759;28;20506;-69
2021/08/02 08:03:09;;;;;;;4.10;2.77;;;;;;;;;;5025094;28;20428;-69
2021/08/02 08:05:35;;;;;;;3.57;2.77;;;;;;;;;;5030325;28;20435;-69
2021/08/02 08:08:01;;;;;;;9.53;2.57;;;;;;;;;;5027097;28;20430;-73
2021/08/02 08:10:28;;;;;;;7.93;2.93;;;;;;;;;;5028215;28;20911;-72
2021/08/02 08:12:54;;;;;;;6.27;2.87;;;;;;;;;;5026196;28;20450;-71
2021/08/02 08:15:21;;;;;;;3.90;2.60;;;;;;;;;;5028931;28;20848;-71
2021/08/02 08:17:47;;;;;;;3.07;2.30;;;;;;;;;;5026198;28;20456;-70
2021/08/02 08:20:15;;;;;;;3.00;2.30;;;;;;;;;;5025768;28;20418;-72
2021/08/02 08:22:41;;;;;;;12.20;2.77;;;;;;;;;;5025527;28;20983;-70
2021/08/02 08:25:08;;;;;;;5.65;2.67;;;;;;;;;;5028891;28;20413;-72
2021/08/02 08:27:34;;;;;;;3.93;2.67;;;;;;;;;;5031877;28;20222;-73
2021/08/02 08:30:00;;;;;;;3.60;2.47;;;;;;;;;;5026555;28;20437;-70
2021/08/02 08:32:27;;;;;;;3.90;2.97;;;;;;;;;;5027258;28;20477;-70
2021/08/02 08:34:54;;;;;;;4.20;3.00;;;;;;;;;;5030191;28;20483;-71
2021/08/02 08:37:20;;;;;;;4.20;2.80;;;;;;;;;;5026272;28;20202;-72
2021/08/02 08:39:46;;;;;;;5.17;2.87;;;;;;;;;;5026899;28;20445;-73
2021/08/02 08:42:14;;;;;;;4.43;2.70;;;;;;;;;;5024927;28;20430;-72
2021/08/02 08:44:40;;;;;;;5.53;2.60;;;;;;;;;;5030326;28;20437;-71
2021/08/02 08:47:07;;;;;;;5.03;3.50;;;;;;;;;;5025393;28;20806;-71
2021/08/02 08:49:33;;;;;;;3.90;2.90;;;;;;;;;;5028839;28;20849;-71
2021/08/02 08:51:59;;;;;;;5.17;2.70;;;;;;;;;;5028288;28;20422;-71
2021/08/02 08:54:25;;;;;;;4.37;2.73;;;;;;;;;;5030595;28;20507;-71
2021/08/02 08:56:52;;;;;;;5.77;3.93;;;;;;;;;;5030339;28;20473;-71
2021/08/02 08:59:18;;;;;;;6.17;3.70;;;;;;;;;;5028897;28;20423;-71
2021/08/02 09:01:45;;;;;;;4.00;2.90;;;;;;;;;;5028859;28;20853;-71
2021/08/02 09:04:11;;;;;;;5.30;3.50;;;;;;;;;;5024151;28;20488;-71
2021/08/02 09:06:47;;;;;;;5.53;3.33;;;;;;;;;;5020086;28;20548;-71
2021/08/02 09:09:27;;;;;;;4.00;3.13;;;;;;;;;;5026922;28;20473;-71
2021/08/02 09:12:03;;;;;;;5.47;3.20;;;;;;;;;;5024219;28;20433;-71
2021/08/02 09:14:29;;;;;;;6.77;3.00;;;;;;;;;;5027236;28;20461;-71
2021/08/02 09:16:57;;;;;;;4.70;2.30;;;;;;;;;;5027201;28;20835;-71
2021/08/02 09:19:24;;;;;;;5.40;3.10;;;;;;;;;;5024320;28;20526;-71
2021/08/02 09:21:52;;;;;;;3.77;2.33;;;;;;;;;;5026130;28;20422;-72
2021/08/02 09:24:30;;;;;;;3.17;2.33;;;;;;;;;;5026171;28;20430;-71
2021/08/02 09:26:56;;;;;;;3.77;2.90;;;;;;;;;;5028134;28;20595;-71
2021/08/02 09:29:32;;;;;;;4.50;2.43;;;;;;;;;;5027873;28;20521;-71
2021/08/02 09:32:00;;;;;;;3.53;2.33;;;;;;;;;;5026230;28;20433;-72
2021/08/02 09:34:26;;;;;;;3.50;2.40;;;;;;;;;;5029046;28;20513;-71
2021/08/02 09:36:59;;;;;;;4.40;1.97;;;;;;;;;;5025868;28;20450;-72
2021/08/02 09:39:29;;;;;;;5.00;2.43;;;;;;;;;;5031346;28;20454;-71
2021/08/02 09:42:03;;;;;;;3.00;2.33;;;;;;;;;;5032606;28;20422;-71
2021/08/02 09:44:30;;;;;;;3.77;2.30;;;;;;;;;;5031114;28;20433;-71
2021/08/02 09:47:00;;;;;;;3.93;2.90;;;;;;;;;;5030776;28;20533;-72
2021/08/02 09:49:27;;;;;;;4.30;2.40;;;;;;;;;;5032769;28;20446;-72
2021/08/02 09:51:54;;;;;;;6.47;2.80;;;;;;;;;;5031865;28;20441;-72
2021/08/02 09:54:24;;;;;;;3.67;2.80;;;;;;;;;;5032303;28;20462;-72
2021/08/02 09:56:51;;;;;;;5.00;2.43;;;;;;;;;;5032578;28;20443;-71
2021/08/02 09:59:17;;;;;;;5.53;3.13;;;;;;;;;;5029843;28;20425;-71
2021/08/02 10:01:43;;;;;;;3.20;2.27;;;;;;;;;;5032836;28;20462;-72
2021/08/02 10:04:12;;;;;;;2.80;1.90;;;;;;;;;;5032155;28;20434;-71
2021/08/02 10:06:38;;;;;;;4.63;2.90;;;;;;;;;;5030051;28;20454;-71
2021/08/02 10:09:06;;;;;;;5.67;2.47;;;;;;;;;;5031875;28;20452;-71
2021/08/02 10:11:33;;;;;;;5.73;2.60;;;;;;;;;;5029904;28;20441;-71
2021/08/02 10:13:59;;;;;;;3.57;2.63;;;;;;;;;;5028317;28;20803;-73
2021/08/02 10:16:27;;;;;;;4.17;2.70;;;;;;;;;;5030174;28;20438;-71
2021/08/02 10:19:01;;;;;;;4.00;2.70;;;;;;;;;;5031132;28;20433;-70
2021/08/02 10:21:36;;;;;;;7.10;4.40;;;;;;;;;;5034034;28;20445;-69
2021/08/02 10:24:06;;;;;;;4.40;3.03;;;;;;;;;;5026209;28;21256;-71
2021/08/02 10:26:32;;;;;;;3.87;2.57;;;;;;;;;;5029101;28;21005;-70
2021/08/02 10:28:59;;;;;;;3.33;2.30;;;;;;;;;;5032360;28;20929;-70
2021/08/02 10:31:28;;;;;;;3.17;2.23;;;;;;;;;;5028781;28;20491;-69
2021/08/02 10:33:55;;;;;;;5.17;3.20;;;;;;;;;;5030246;28;20450;-70
2021/08/02 10:36:22;;;;;;;5.07;2.87;;;;;;;;;;5029978;28;20442;-70
2021/08/02 10:38:52;;;;;;;3.70;2.17;;;;;;;;;;5028915;28;20835;-69
2021/08/02 10:41:32;;;;;;;4.10;2.57;;;;;;;;;;5028644;28;20451;-69
2021/08/02 10:44:19;;;;;;;4.70;2.10;;;;;;;;;;5024152;28;20476;-70
2021/08/02 10:46:46;;;;;;;3.63;2.40;;;;;;;;;;5032692;28;20453;-69
2021/08/02 10:49:13;;;;;;;3.73;2.40;;;;;;;;;;5030973;28;20438;-70
2021/08/02 10:51:46;;;;;;;5.73;2.77;;;;;;;;;;5032090;28;20907;-69
2021/08/02 10:54:12;;;;;;;5.50;2.57;;;;;;;;;;5041425;28;20497;-70
2021/08/02 10:56:39;;;;;;;5.37;2.83;;;;;;;;;;5027128;28;20438;-69
2021/08/02 10:59:05;;;;;;;4.60;2.43;;;;;;;;;;5028884;28;20492;-69
2021/08/02 11:01:31;;;;;;;2.87;1.97;;;;;;;;;;5029347;28;20430;-69
2021/08/02 11:03:58;;;;;;;3.90;2.30;;;;;;;;;;5028757;28;20469;-69
2021/08/02 11:06:27;;;;;;;3.80;1.83;;;;;;;;;;5029796;28;20442;-70
2021/08/02 11:08:57;;;;;;;2.93;2.20;;;;;;;;;;5031754;28;20949;-71
2021/08/02 11:11:28;;;;;;;4.27;2.50;;;;;;;;;;5029782;28;20415;-69
2021/08/02 11:14:04;;;;;;;4.93;1.90;;;;;;;;;;5029593;28;20466;-70
2021/08/02 11:16:31;;;;;;;3.90;2.47;;;;;;;;;;5032633;28;20439;-70
2021/08/02 11:18:57;;;;;;;3.73;1.70;;;;;;;;;;5030431;28;20438;-71
2021/08/02 11:21:24;;;;;;;2.60;1.80;;;;;;;;;;5027765;28;20411;-71
2021/08/02 11:23:51;;;;;;;4.70;1.70;;;;;;;;;;5028498;28;20480;-70
2021/08/02 11:26:17;;;;;;;3.70;1.97;;;;;;;;;;5025205;28;20465;-70
2021/08/02 11:28:45;;;;;;;2.07;1.60;;;;;;;;;;5031557;28;20437;-70
2021/08/02 11:31:11;;;;;;;2.73;1.70;;;;;;;;;;5030121;28;20464;-69
2021/08/02 11:33:41;;;;;;;3.10;2.00;;;;;;;;;;5025670;28;20431;-72
2021/08/02 11:36:28;;;;;;;3.37;2.30;;;;;;;;;;5031933;28;20422;-70
2021/08/02 11:38:54;;;;;;;4.40;2.87;;;;;;;;;;5031092;28;20427;-70
2021/08/02 11:41:23;;;;;;;3.53;2.07;;;;;;;;;;5027346;28;20410;-70
2021/08/02 11:43:50;;;;;;;2.87;2.13;;;;;;;;;;5027531;28;20426;-70
2021/08/02 11:46:16;;;;;;;3.10;2.03;;;;;;;;;;5031174;28;20468;-71
2021/08/02 11:48:44;;;;;;;6.10;2.03;;;;;;;;;;5030896;28;20453;-70
2021/08/02 11:51:12;;;;;;;3.83;2.27;;;;;;;;;;5032700;28;20895;-71
2021/08/02 11:53:38;;;;;;;5.80;2.20;;;;;;;;;;5030688;28;20427;-70
2021/08/02 11:56:05;;;;;;;3.40;1.97;;;;;;;;;;5031104;28;20923;-71
2021/08/02 11:58:38;;;;;;;2.87;1.63;;;;;;;;;;5028469;28;20923;-70
2021/08/02 12:01:04;;;;;;;3.00;1.90;;;;;;;;;;5027735;28;20430;-70
2021/08/02 12:03:30;;;;;;;2.90;1.93;;;;;;;;;;5026012;28;20434;-71
2021/08/02 12:06:03;;;;;;;3.10;1.80;;;;;;;;;;5031113;28;20426;-70
2021/08/02 12:08:29;;;;;;;5.20;2.87;;;;;;;;;;5030479;28;20454;-70
2021/08/02 12:10:56;;;;;;;2.87;1.73;;;;;;;;;;5030651;28;20422;-71
2021/08/02 12:13:22;;;;;;;3.43;2.27;;;;;;;;;;5024688;28;20461;-70
2021/08/02 12:15:53;;;;;;;2.70;2.10;;;;;;;;;;5030406;28;20461;-71
2021/08/02 12:18:26;;;;;;;3.67;2.07;;;;;;;;;;5027836;28;20926;-71
2021/08/02 12:20:52;;;;;;;4.70;1.50;;;;;;;;;;5029768;28;20433;-70
2021/08/02 12:23:25;;;;;;;2.30;1.30;;;;;;;;;;5020625;28;20434;-71
2021/08/02 12:25:52;;;;;;;3.13;1.50;;;;;;;;;;5031390;28;20422;-71
2021/08/02 12:28:18;;;;;;;2.67;1.53;;;;;;;;;;5028980;28;20419;-71
2021/08/02 12:30:44;;;;;;;3.00;1.47;;;;;;;;;;5031099;28;20426;-71
2021/08/02 12:33:12;;;;;;;2.87;1.67;;;;;;;;;;5028272;28;20903;-71
2021/08/02 12:35:38;;;;;;;3.27;2.10;;;;;;;;;;5028602;28;20552;-71
2021/08/02 12:38:05;;;;;;;2.30;1.70;;;;;;;;;;5019055;28;20439;-71
2021/08/02 12:40:32;;;;;;;3.00;1.63;;;;;;;;;;5029804;28;20419;-71
2021/08/02 12:42:58;;;;;;;3.43;1.80;;;;;;;;;;5031064;28;20981;-70
2021/08/02 12:45:24;;;;;;;4.37;2.00;;;;;;;;;;5028280;28;20430;-71
2021/08/02 12:47:51;;;;;;;2.90;1.70;;;;;;;;;;5030186;28;20483;-71
2021/08/02 12:50:17;;;;;;;2.90;1.53;;;;;;;;;;5028465;28;20841;-71
2021/08/02 12:52:48;;;;;;;3.13;2.03;;;;;;;;;;5018486;28;20433;-71
2021/08/02 12:55:15;;;;;;;3.23;1.93;;;;;;;;;;5029127;28;20962;-72
2021/08/02 12:57:41;;;;;;;2.33;1.70;;;;;;;;;;5029862;28;20454;-71
2021/08/02 13:00:11;;;;;;;4.30;1.53;;;;;;;;;;5031232;28;20513;-71
2021/08/02 13:02:38;;;;;;;3.53;1.67;;;;;;;;;;5029874;28;20426;-71
2021/08/02 13:05:04;;;;;;;2.77;1.60;;;;;;;;;;5029191;28;20562;-71
2021/08/02 13:07:30;;;;;;;4.27;1.97;;;;;;;;;;5028846;28;20456;-70
2021/08/02 13:09:57;;;;;;;2.30;1.43;;;;;;;;;;5029095;28;20831;-70
2021/08/02 13:12:23;;;;;;;2.73;1.37;;;;;;;;;;5032509;28;20430;-71
2021/08/02 13:14:49;;;;;;;2.60;1.60;;;;;;;;;;5034140;28;20462;-71
2021/08/02 13:17:16;;;;;;;2.37;1.40;;;;;;;;;;5033250;28;20446;-70
2021/08/02 13:19:44;;;;;;;3.47;2.27;;;;;;;;;;5035650;28;20445;-70
2021/08/02 13:22:12;;;;;;;8.03;1.53;;;;;;;;;;5036418;28;20419;-70
2021/08/02 13:27:23;;;;;;;3.33;1.50;;;;;;;;;;5027263;28;20428;-70
2021/08/02 13:29:49;;;;;;;4.20;1.60;;;;;;;;;;5030307;28;20600;-71
2021/08/02 13:32:15;;;;;;;3.27;1.70;;;;;;;;;;5032379;28;20914;-71
2021/08/02 13:34:41;;;;;;;4.07;1.93;;;;;;;;;;5030044;28;20810;-72
2021/08/02 13:37:08;;;;;;;2.37;1.70;;;;;;;;;;5034331;28;20845;-71
2021/08/02 13:39:35;;;;;;;3.87;1.67;;;;;;;;;;5033632;28;20509;-71
2021/08/02 13:42:02;;;;;;;2.30;1.67;;;;;;;;;;5034918;28;20435;-72
2021/08/02 13:44:28;;;;;;;2.70;1.80;;;;;;;;;;5032861;28;20789;-71
2021/08/02 13:46:54;;;;;;;4.67;1.67;;;;;;;;;;5034849;28;21053;-70
2021/08/02 13:49:21;;;;;;;3.60;1.60;;;;;;;;;;5033825;28;20529;-71
2021/08/02 13:51:47;;;;;;;2.57;1.50;;;;;;;;;;5033834;28;20430;-72
2021/08/02 13:54:14;;;;;;;2.50;1.30;;;;;;;;;;5030320;28;20461;-70
2021/08/02 13:56:40;;;;;;;5.00;1.47;;;;;;;;;;5031836;28;20492;-69
2021/08/02 13:59:06;;;;;;;4.37;2.03;;;;;;;;;;5026637;28;20458;-71
2021/08/02 14:01:32;;;;;;;3.10;1.73;;;;;;;;;;5031739;28;20418;-71
2021/08/02 14:03:59;;;;;;;2.63;1.87;;;;;;;;;;5030512;28;20473;-70
2021/08/02 14:06:25;;;;;;;2.40;1.60;;;;;;;;;;5025773;28;20968;-69
2021/08/02 14:08:52;;;;;;;3.20;1.50;;;;;;;;;;5032778;28;20497;-70
2021/08/02 14:11:19;;;;;;;2.50;1.30;;;;;;;;;;5031979;28;20444;-68
2021/08/02 14:13:47;;;;;;;3.70;2.10;;;;;;;;;;5031969;28;20529;-72
2021/08/02 14:16:17;;;;;;;3.73;1.70;;;;;;;;;;5031157;28;20493;-71
2021/08/02 14:19:03;;;;;;;2.87;1.20;;;;;;;;;;5025796;28;20419;-73
2021/08/02 14:21:30;;;;;;;2.73;1.60;;;;;;;;;;5032281;28;20434;-74
2021/08/02 14:23:56;;;;;;;2.50;1.50;;;;;;;;;;5033742;28;20426;-73
2021/08/02 14:26:22;;;;;;;3.07;1.83;;;;;;;;;;5031647;28;20466;-71
2021/08/02 14:28:48;;;;;;;7.93;1.83;;;;;;;;;;5033320;28;20434;-70
2021/08/02 14:31:14;;;;;;;3.83;1.73;;;;;;;;;;5029020;28;20431;-70
2021/08/02 14:33:42;;;;;;;3.13;1.77;;;;;;;;;;5031448;28;20473;-70
2021/08/02 14:36:09;;;;;;;3.10;1.80;;;;;;;;;;5032519;28;20500;-70
2021/08/02 14:38:39;;;;;;;2.50;1.40;;;;;;;;;;5032933;28;20845;-71
2021/08/02 14:41:05;;;;;;;2.57;1.53;;;;;;;;;;5026882;28;20426;-69
2021/08/02 14:43:31;;;;;;;3.03;1.50;;;;;;;;;;5031293;28;20422;-71
2021/08/02 14:45:57;;;;;;;4.00;1.43;;;;;;;;;;5025722;28;20549;-69
2021/08/02 14:48:24;;;;;;;2.33;1.43;;;;;;;;;;5037037;28;20755;-71